Briefing drone pour Miribel

Rechercher une autre localisation

Conditions de vol :


Nous sommes le : Mardi 24 mai 2022
Il est 05:56 UTC (07:56 LT)

Lever de soleil : 03:33 UTC (05:33 LT)
Coucher de soleil : 19:40 UTC (21:40 LT)

Météo

L'essentiel des conditions de vol

VIGILANCE MÉTÉO FRANCE - Ain (01)
Pas de vigilances particulieres
CARTE TEMSI
CARTES DES FRONTS
METAR de LFLL
LFLL 240530Z 03005KT 350V060 9999 FEW045 BKN063 15/09 Q1012 NOSIG

Date d'émission: 24/05/2022
Heure d'émission: 05:30 UTC
Vent: 030° pour 5 KT (9 km/h) Variable
Visibilité horizontale: > 10 km
Plafond :
- Peu de nuages à 4500ft (1372m)
- Nuages morcelés à 6300ft (1920m)
Température: 15 °C
Point de rosée: 9 °C
Humidité: 67%
Pression (QNH): 1012 hPa
Conditions: Pas de changement dans les 2 heures (NOSIG)
TAF de LFLL
LFLL 240500Z 2406/2512 36009KT CAVOK

Conditions prévues :

Heure d'émission : Bulletin éffectué le 24 à 06:00 UTC
Prévision : Valide du 24 a 06:00 UTC au 25 a 12:00 UTC
Vent : 360° pour 9 KT (17 km/h)
Visibilité : > 10 km
WEBCAM POUR MIRIBEL

Réglementation

Voler en sécurité

CARTES AERONAUTIQUE 1/500.000
CARTES VAC (LFLL)
SUP AIP




Chargement des AIP...
NOTAM (MIRIBEL + Terrain à proximité / FIR )




Chargement des NOTAMS...
CONTACT PREFECTURE 01


Avertissement : Les données mises à disposition sont indicatives. Oxygène Drone ne pourra être tenu responsable de dégâts causés aux biens et aux personnes.